sensor_id;sensor_type;location;lat;lon;timestamp;pressure;altitude;pressure_sealevel;temperature;humidity
17593;BME280;8915;51.760;14.300;2023-03-01T00:00:47;102318.72;;;-5.94;100.00
17593;BME280;8915;51.760;14.300;2023-03-01T00:03:21;102320.84;;;-6.25;100.00
17593;BME280;8915;51.760;14.300;2023-03-01T00:05:53;102321.28;;;-6.31;100.00
17593;BME280;8915;51.760;14.300;2023-03-01T00:08:21;102316.06;;;-6.21;100.00
17593;BME280;8915;51.760;14.300;2023-03-01T00:10:48;102327.34;;;-6.17;100.00
17593;BME280;8915;51.760;14.300;2023-03-01T00:13:16;102316.81;;;-6.10;100.00
17593;BME280;8915;51.760;14.300;2023-03-01T00:15:43;102318.28;;;-6.25;100.00
17593;BME280;8915;51.760;14.300;2023-03-01T00:18:11;102308.59;;;-6.31;100.00
17593;BME280;8915;51.760;14.300;2023-03-01T00:20:38;102312.94;;;-6.42;100.00
17593;BME280;8915;51.760;14.300;2023-03-01T00:23:05;102309.00;;;-6.25;100.00
17593;BME280;8915;51.760;14.300;2023-03-01T00:25:41;102299.81;;;-6.11;100.00
17593;BME280;8915;51.760;14.300;2023-03-01T00:28:26;102300.91;;;-6.07;100.00
17593;BME280;8915;51.760;14.300;2023-03-01T00:31:03;102289.91;;;-6.20;100.00
17593;BME280;8915;51.760;14.300;2023-03-01T00:33:31;102295.81;;;-6.33;100.00
17593;BME280;8915;51.760;14.300;2023-03-01T00:36:00;102292.91;;;-6.25;100.00
17593;BME280;8915;51.760;14.300;2023-03-01T00:38:28;102283.50;;;-6.26;100.00
17593;BME280;8915;51.760;14.300;2023-03-01T00:40:54;102285.16;;;-6.15;100.00
17593;BME280;8915;51.760;14.300;2023-03-01T00:43:23;102278.50;;;-6.13;100.00
17593;BME280;8915;51.760;14.300;2023-03-01T00:45:50;102285.22;;;-6.39;100.00
17593;BME280;8915;51.760;14.300;2023-03-01T00:48:17;102287.69;;;-6.15;100.00
17593;BME280;8915;51.760;14.300;2023-03-01T00:50:43;102285.25;;;-6.14;100.00
17593;BME280;8915;51.760;14.300;2023-03-01T00:53:10;102285.03;;;-6.42;100.00
17593;BME280;8915;51.760;14.300;2023-03-01T00:55:37;102283.38;;;-6.53;100.00
17593;BME280;8915;51.760;14.300;2023-03-01T00:58:04;102289.97;;;-6.43;100.00
17593;BME280;8915;51.760;14.300;2023-03-01T01:00:32;102285.66;;;-6.44;100.00
17593;BME280;8915;51.760;14.300;2023-03-01T01:02:59;102276.19;;;-6.47;100.00
17593;BME280;8915;51.760;14.300;2023-03-01T01:05:26;102283.09;;;-6.33;100.00
17593;BME280;8915;51.760;14.300;2023-03-01T01:07:53;102279.59;;;-6.35;100.00
17593;BME280;8915;51.760;14.300;2023-03-01T01:10:19;102270.53;;;-6.31;100.00
17593;BME280;8915;51.760;14.300;2023-03-01T01:12:50;102279.16;;;-6.41;100.00
17593;BME280;8915;51.760;14.300;2023-03-01T01:15:17;102274.03;;;-6.29;100.00
17593;BME280;8915;51.760;14.300;2023-03-01T01:17:45;102273.34;;;-6.26;100.00
17593;BME280;8915;51.760;14.300;2023-03-01T01:20:11;102279.63;;;-6.47;100.00
17593;BME280;8915;51.760;14.300;2023-03-01T01:22:38;102271.63;;;-6.39;100.00
17593;BME280;8915;51.760;14.300;2023-03-01T01:25:05;102265.56;;;-6.30;100.00
17593;BME280;8915;51.760;14.300;2023-03-01T01:27:31;102264.44;;;-6.33;100.00
17593;BME280;8915;51.760;14.300;2023-03-01T01:29:58;102260.31;;;-6.56;100.00
17593;BME280;8915;51.760;14.300;2023-03-01T01:32:24;102270.09;;;-6.49;100.00
17593;BME280;8915;51.760;14.300;2023-03-01T01:34:52;102256.41;;;-6.39;100.00
17593;BME280;8915;51.760;14.300;2023-03-01T01:37:19;102261.94;;;-6.45;100.00
17593;BME280;8915;51.760;14.300;2023-03-01T01:39:45;102256.03;;;-6.57;100.00
17593;BME280;8915;51.760;14.300;2023-03-01T01:42:14;102255.66;;;-6.38;100.00
17593;BME280;8915;51.760;14.300;2023-03-01T01:44:42;102252.66;;;-6.33;100.00
17593;BME280;8915;51.760;14.300;2023-03-01T01:47:14;102256.78;;;-6.47;100.00
17593;BME280;8915;51.760;14.300;2023-03-01T01:49:46;102244.03;;;-6.35;100.00
17593;BME280;8915;51.760;14.300;2023-03-01T01:52:17;102244.06;;;-6.47;100.00
17593;BME280;8915;51.760;14.300;2023-03-01T01:54:50;102244.44;;;-6.54;100.00
17593;BME280;8915;51.760;14.300;2023-03-01T01:57:23;102235.16;;;-6.53;100.00
17593;BME280;8915;51.760;14.300;2023-03-01T01:59:54;102239.28;;;-6.67;100.00
17593;BME280;8915;51.760;14.300;2023-03-01T02:02:22;102237.75;;;-6.77;100.00
17593;BME280;8915;51.760;14.300;2023-03-01T02:04:52;102227.16;;;-6.71;100.00
17593;BME280;8915;51.760;14.300;2023-03-01T02:07:25;102228.00;;;-6.59;100.00
17593;BME280;8915;51.760;14.300;2023-03-01T02:09:52;102224.16;;;-6.66;100.00
17593;BME280;8915;51.760;14.300;2023-03-01T02:12:20;102214.00;;;-6.66;100.00
17593;BME280;8915;51.760;14.300;2023-03-01T02:14:48;102221.94;;;-6.61;100.00
17593;BME280;8915;51.760;14.300;2023-03-01T02:17:16;102219.31;;;-6.74;100.00
17593;BME280;8915;51.760;14.300;2023-03-01T02:19:52;102224.06;;;-6.79;100.00
17593;BME280;8915;51.760;14.300;2023-03-01T02:22:25;102222.91;;;-6.84;100.00
17593;BME280;8915;51.760;14.300;2023-03-01T02:25:02;102225.38;;;-6.72;100.00
17593;BME280;8915;51.760;14.300;2023-03-01T02:27:38;102225.50;;;-6.82;100.00
17593;BME280;8915;51.760;14.300;2023-03-01T02:30:09;102221.00;;;-6.75;100.00
17593;BME280;8915;51.760;14.300;2023-03-01T02:32:40;102219.56;;;-6.95;100.00
17593;BME280;8915;51.760;14.300;2023-03-01T02:35:08;102232.59;;;-6.90;100.00
17593;BME280;8915;51.760;14.300;2023-03-01T02:37:35;102226.44;;;-7.06;100.00
17593;BME280;8915;51.760;14.300;2023-03-01T02:40:09;102229.41;;;-6.99;100.00
17593;BME280;8915;51.760;14.300;2023-03-01T02:42:42;102227.75;;;-7.11;100.00
17593;BME280;8915;51.760;14.300;2023-03-01T02:45:13;102228.53;;;-7.00;100.00
17593;BME280;8915;51.760;14.300;2023-03-01T02:47:39;102223.03;;;-7.18;100.00
17593;BME280;8915;51.760;14.300;2023-03-01T02:50:19;102227.34;;;-7.17;100.00
17593;BME280;8915;51.760;14.300;2023-03-01T02:52:54;102221.25;;;-7.07;100.00
17593;BME280;8915;51.760;14.300;2023-03-01T02:55:22;102216.97;;;-7.08;100.00
17593;BME280;8915;51.760;14.300;2023-03-01T02:57:49;102225.66;;;-6.93;100.00
17593;BME280;8915;51.760;14.300;2023-03-01T03:00:21;102221.00;;;-6.87;100.00
17593;BME280;8915;51.760;14.300;2023-03-01T03:02:50;102228.94;;;-6.82;100.00
17593;BME280;8915;51.760;14.300;2023-03-01T03:05:20;102228.09;;;-6.94;100.00
17593;BME280;8915;51.760;14.300;2023-03-01T03:07:50;102224.69;;;-7.07;100.00
17593;BME280;8915;51.760;14.300;2023-03-01T03:10:21;102225.13;;;-7.12;100.00
17593;BME280;8915;51.760;14.300;2023-03-01T03:12:49;102223.25;;;-7.27;100.00
17593;BME280;8915;51.760;14.300;2023-03-01T03:15:18;102233.59;;;-7.35;100.00
17593;BME280;8915;51.760;14.300;2023-03-01T03:17:46;102228.44;;;-7.49;100.00
17593;BME280;8915;51.760;14.300;2023-03-01T03:20:14;102228.88;;;-7.43;100.00
17593;BME280;8915;51.760;14.300;2023-03-01T03:22:44;102227.22;;;-7.42;100.00
17593;BME280;8915;51.760;14.300;2023-03-01T03:25:10;102223.91;;;-7.41;100.00
17593;BME280;8915;51.760;14.300;2023-03-01T03:27:37;102220.94;;;-7.24;100.00
17593;BME280;8915;51.760;14.300;2023-03-01T03:30:06;102218.53;;;-7.10;100.00
17593;BME280;8915;51.760;14.300;2023-03-01T03:32:35;102214.31;;;-7.10;100.00
17593;BME280;8915;51.760;14.300;2023-03-01T03:35:02;102221.25;;;-7.43;100.00
17593;BME280;8915;51.760;14.300;2023-03-01T03:37:34;102214.97;;;-7.48;100.00
17593;BME280;8915;51.760;14.300;2023-03-01T03:40:18;102215.53;;;-7.28;100.00
17593;BME280;8915;51.760;14.300;2023-03-01T03:42:44;102220.28;;;-7.33;100.00
17593;BME280;8915;51.760;14.300;2023-03-01T03:45:10;102211.47;;;-7.38;100.00
17593;BME280;8915;51.760;14.300;2023-03-01T03:47:38;102212.22;;;-7.39;100.00
17593;BME280;8915;51.760;14.300;2023-03-01T03:50:05;102211.69;;;-7.47;100.00
17593;BME280;8915;51.760;14.300;2023-03-01T03:52:32;102203.31;;;-7.46;100.00
17593;BME280;8915;51.760;14.300;2023-03-01T03:54:58;102209.69;;;-7.39;100.00
17593;BME280;8915;51.760;14.300;2023-03-01T03:57:24;102212.56;;;-7.34;100.00
17593;BME280;8915;51.760;14.300;2023-03-01T03:59:51;102210.03;;;-7.22;100.00
17593;BME280;8915;51.760;14.300;2023-03-01T04:02:17;102206.19;;;-7.17;100.00
17593;BME280;8915;51.760;14.300;2023-03-01T04:04:51;102210.91;;;-7.22;100.00
17593;BME280;8915;51.760;14.300;2023-03-01T04:07:17;102211.00;;;-7.44;100.00
17593;BME280;8915;51.760;14.300;2023-03-01T04:09:44;102207.63;;;-7.33;100.00
17593;BME280;8915;51.760;14.300;2023-03-01T04:12:13;102208.25;;;-7.35;100.00
17593;BME280;8915;51.760;14.300;2023-03-01T04:14:45;102207.41;;;-7.59;100.00
17593;BME280;8915;51.760;14.300;2023-03-01T04:17:12;102205.59;;;-7.37;100.00
17593;BME280;8915;51.760;14.300;2023-03-01T04:19:38;102211.47;;;-7.26;100.00
17593;BME280;8915;51.760;14.300;2023-03-01T04:22:06;102205.19;;;-7.31;100.00
17593;BME280;8915;51.760;14.300;2023-03-01T04:24:34;102210.69;;;-7.37;100.00
17593;BME280;8915;51.760;14.300;2023-03-01T04:27:01;102200.00;;;-7.21;100.00
17593;BME280;8915;51.760;14.300;2023-03-01T04:29:28;102200.53;;;-7.25;100.00
17593;BME280;8915;51.760;14.300;2023-03-01T04:31:55;102194.06;;;-7.33;100.00
17593;BME280;8915;51.760;14.300;2023-03-01T04:34:21;102192.53;;;-7.31;100.00
17593;BME280;8915;51.760;14.300;2023-03-01T04:36:48;102198.69;;;-7.39;100.00
17593;BME280;8915;51.760;14.300;2023-03-01T04:39:16;102189.31;;;-7.40;100.00
17593;BME280;8915;51.760;14.300;2023-03-01T04:41:42;102191.31;;;-7.36;100.00
17593;BME280;8915;51.760;14.300;2023-03-01T04:44:09;102195.47;;;-7.25;100.00
17593;BME280;8915;51.760;14.300;2023-03-01T04:46:36;102191.84;;;-7.40;100.00
17593;BME280;8915;51.760;14.300;2023-03-01T04:49:03;102197.69;;;-7.42;100.00
17593;BME280;8915;51.760;14.300;2023-03-01T04:51:30;102196.03;;;-7.29;100.00
17593;BME280;8915;51.760;14.300;2023-03-01T04:53:57;102198.47;;;-7.54;100.00
17593;BME280;8915;51.760;14.300;2023-03-01T04:56:27;102191.88;;;-7.52;100.00
17593;BME280;8915;51.760;14.300;2023-03-01T04:58:54;102193.41;;;-7.54;100.00
17593;BME280;8915;51.760;14.300;2023-03-01T05:01:20;102189.63;;;-7.71;100.00
17593;BME280;8915;51.760;14.300;2023-03-01T05:03:48;102185.66;;;-7.91;100.00
17593;BME280;8915;51.760;14.300;2023-03-01T05:06:15;102188.66;;;-7.73;100.00
17593;BME280;8915;51.760;14.300;2023-03-01T05:08:43;102184.81;;;-7.68;100.00
17593;BME280;8915;51.760;14.300;2023-03-01T05:11:10;102177.75;;;-7.61;100.00
17593;BME280;8915;51.760;14.300;2023-03-01T05:13:39;102177.53;;;-7.52;100.00
17593;BME280;8915;51.760;14.300;2023-03-01T05:16:07;102176.53;;;-7.54;100.00
17593;BME280;8915;51.760;14.300;2023-03-01T05:18:37;102181.59;;;-7.66;100.00
17593;BME280;8915;51.760;14.300;2023-03-01T05:21:06;102171.59;;;-7.64;100.00
17593;BME280;8915;51.760;14.300;2023-03-01T05:23:33;102175.09;;;-7.62;100.00
17593;BME280;8915;51.760;14.300;2023-03-01T05:26:02;102179.63;;;-7.70;100.00
17593;BME280;8915;51.760;14.300;2023-03-01T05:28:29;102184.25;;;-7.64;100.00
17593;BME280;8915;51.760;14.300;2023-03-01T05:30:57;102181.47;;;-7.67;100.00
17593;BME280;8915;51.760;14.300;2023-03-01T05:33:25;102183.50;;;-7.63;100.00
17593;BME280;8915;51.760;14.300;2023-03-01T05:35:59;102184.56;;;-7.71;100.00
17593;BME280;8915;51.760;14.300;2023-03-01T05:38:26;102183.03;;;-7.69;100.00
17593;BME280;8915;51.760;14.300;2023-03-01T05:40:52;102188.19;;;-7.80;100.00
17593;BME280;8915;51.760;14.300;2023-03-01T05:43:19;102187.22;;;-7.70;100.00
17593;BME280;8915;51.760;14.300;2023-03-01T05:45:46;102190.84;;;-7.66;100.00
17593;BME280;8915;51.760;14.300;2023-03-01T05:48:14;102188.22;;;-7.68;100.00
17593;BME280;8915;51.760;14.300;2023-03-01T05:50:41;102190.28;;;-7.86;100.00
17593;BME280;8915;51.760;14.300;2023-03-01T05:53:10;102190.94;;;-8.00;100.00
17593;BME280;8915;51.760;14.300;2023-03-01T05:55:38;102197.78;;;-7.75;100.00
17593;BME280;8915;51.760;14.300;2023-03-01T05:58:07;102192.72;;;-7.64;100.00
17593;BME280;8915;51.760;14.300;2023-03-01T06:00:33;102190.75;;;-7.68;100.00
17593;BME280;8915;51.760;14.300;2023-03-01T06:03:00;102184.78;;;-7.56;100.00
17593;BME280;8915;51.760;14.300;2023-03-01T06:05:29;102174.00;;;-7.66;100.00
17593;BME280;8915;51.760;14.300;2023-03-01T06:07:58;102177.31;;;-7.78;100.00
17593;BME280;8915;51.760;14.300;2023-03-01T06:10:25;102180.47;;;-7.81;100.00
17593;BME280;8915;51.760;14.300;2023-03-01T06:12:51;102177.97;;;-7.69;100.00
17593;BME280;8915;51.760;14.300;2023-03-01T06:15:18;102176.53;;;-7.66;100.00
17593;BME280;8915;51.760;14.300;2023-03-01T06:17:45;102175.09;;;-7.86;100.00
17593;BME280;8915;51.760;14.300;2023-03-01T06:20:13;102173.88;;;-7.91;100.00
17593;BME280;8915;51.760;14.300;2023-03-01T06:22:43;102176.88;;;-7.61;100.00
17593;BME280;8915;51.760;14.300;2023-03-01T06:25:10;102166.28;;;-7.55;100.00
17593;BME280;8915;51.760;14.300;2023-03-01T06:27:37;102168.59;;;-7.47;100.00
17593;BME280;8915;51.760;14.300;2023-03-01T06:30:05;102170.25;;;-7.59;100.00
17593;BME280;8915;51.760;14.300;2023-03-01T06:32:33;102176.31;;;-7.33;100.00
17593;BME280;8915;51.760;14.300;2023-03-01T06:34:59;102168.78;;;-7.08;100.00
17593;BME280;8915;51.760;14.300;2023-03-01T06:37:26;102178.81;;;-7.10;100.00
17593;BME280;8915;51.760;14.300;2023-03-01T06:39:54;102176.75;;;-7.27;100.00
17593;BME280;8915;51.760;14.300;2023-03-01T06:42:20;102178.19;;;-7.19;100.00
17593;BME280;8915;51.760;14.300;2023-03-01T06:44:46;102177.91;;;-6.98;100.00
17593;BME280;8915;51.760;14.300;2023-03-01T06:47:13;102183.66;;;-6.89;100.00
17593;BME280;8915;51.760;14.300;2023-03-01T06:49:40;102175.13;;;-6.90;100.00
17593;BME280;8915;51.760;14.300;2023-03-01T06:52:07;102178.84;;;-6.73;100.00
17593;BME280;8915;51.760;14.300;2023-03-01T06:54:33;102171.13;;;-6.74;100.00
17593;BME280;8915;51.760;14.300;2023-03-01T06:57:01;102170.28;;;-6.61;100.00
17593;BME280;8915;51.760;14.300;2023-03-01T06:59:28;102175.69;;;-6.57;100.00
17593;BME280;8915;51.760;14.300;2023-03-01T07:01:55;102170.94;;;-6.52;100.00
17593;BME280;8915;51.760;14.300;2023-03-01T07:04:21;102171.09;;;-6.62;100.00
17593;BME280;8915;51.760;14.300;2023-03-01T07:06:47;102172.50;;;-6.54;100.00
17593;BME280;8915;51.760;14.300;2023-03-01T07:09:20;102174.81;;;-6.32;100.00
17593;BME280;8915;51.760;14.300;2023-03-01T07:11:47;102177.66;;;-6.53;100.00
17593;BME280;8915;51.760;14.300;2023-03-01T07:14:15;102176.28;;;-6.61;100.00
17593;BME280;8915;51.760;14.300;2023-03-01T07:16:42;102172.84;;;-6.61;100.00
17593;BME280;8915;51.760;14.300;2023-03-01T07:19:09;102169.97;;;-6.54;100.00
17593;BME280;8915;51.760;14.300;2023-03-01T07:21:36;102171.25;;;-6.22;100.00
17593;BME280;8915;51.760;14.300;2023-03-01T07:24:04;102173.00;;;-6.21;100.00
17593;BME280;8915;51.760;14.300;2023-03-01T07:26:31;102185.31;;;-6.14;100.00
17593;BME280;8915;51.760;14.300;2023-03-01T07:28:58;102185.31;;;-6.14;100.00
17593;BME280;8915;51.760;14.300;2023-03-01T07:31:26;102196.38;;;-6.14;100.00
17593;BME280;8915;51.760;14.300;2023-03-01T07:33:53;102186.50;;;-6.09;100.00
17593;BME280;8915;51.760;14.300;2023-03-01T07:36:20;102191.22;;;-6.02;100.00
17593;BME280;8915;51.760;14.300;2023-03-01T07:38:46;102190.91;;;-5.93;100.00
17593;BME280;8915;51.760;14.300;2023-03-01T07:41:13;102185.16;;;-5.77;100.00
17593;BME280;8915;51.760;14.300;2023-03-01T07:43:40;102186.66;;;-5.67;100.00
17593;BME280;8915;51.760;14.300;2023-03-01T07:46:06;102198.00;;;-5.62;100.00
17593;BME280;8915;51.760;14.300;2023-03-01T07:48:34;102183.34;;;-5.53;100.00
17593;BME280;8915;51.760;14.300;2023-03-01T07:51:03;102195.06;;;-5.42;100.00
17593;BME280;8915;51.760;14.300;2023-03-01T07:53:29;102185.78;;;-5.28;100.00
17593;BME280;8915;51.760;14.300;2023-03-01T07:56:01;102189.69;;;-5.20;100.00
17593;BME280;8915;51.760;14.300;2023-03-01T07:58:28;102187.22;;;-5.05;100.00
17593;BME280;8915;51.760;14.300;2023-03-01T08:00:54;102190.16;;;-4.99;100.00
17593;BME280;8915;51.760;14.300;2023-03-01T08:03:20;102186.53;;;-4.89;100.00
17593;BME280;8915;51.760;14.300;2023-03-01T08:05:48;102182.84;;;-4.79;100.00
17593;BME280;8915;51.760;14.300;2023-03-01T08:08:14;102182.63;;;-4.69;100.00
17593;BME280;8915;51.760;14.300;2023-03-01T08:10:41;102179.97;;;-4.57;100.00
17593;BME280;8915;51.760;14.300;2023-03-01T08:13:07;102184.91;;;-4.45;100.00
17593;BME280;8915;51.760;14.300;2023-03-01T08:15:34;102179.03;;;-4.29;100.00
17593;BME280;8915;51.760;14.300;2023-03-01T08:18:00;102181.44;;;-4.18;100.00
17593;BME280;8915;51.760;14.300;2023-03-01T08:20:27;102183.13;;;-4.03;100.00
17593;BME280;8915;51.760;14.300;2023-03-01T08:22:55;102177.88;;;-3.91;100.00
17593;BME280;8915;51.760;14.300;2023-03-01T08:25:21;102184.44;;;-3.80;100.00
17593;BME280;8915;51.760;14.300;2023-03-01T08:27:48;102184.47;;;-3.65;100.00
17593;BME280;8915;51.760;14.300;2023-03-01T08:30:14;102177.22;;;-3.43;100.00
17593;BME280;8915;51.760;14.300;2023-03-01T08:32:41;102172.25;;;-3.25;100.00
17593;BME280;8915;51.760;14.300;2023-03-01T08:35:08;102168.09;;;-3.08;100.00
17593;BME280;8915;51.760;14.300;2023-03-01T08:37:34;102167.84;;;-2.96;100.00
17593;BME280;8915;51.760;14.300;2023-03-01T08:40:08;102167.81;;;-2.81;100.00
17593;BME280;8915;51.760;14.300;2023-03-01T08:42:36;102167.41;;;-2.72;100.00
17593;BME280;8915;51.760;14.300;2023-03-01T08:45:03;102162.94;;;-2.60;100.00
17593;BME280;8915;51.760;14.300;2023-03-01T08:47:29;102162.94;;;-2.43;100.00
17593;BME280;8915;51.760;14.300;2023-03-01T08:49:56;102159.03;;;-2.37;100.00
17593;BME280;8915;51.760;14.300;2023-03-01T08:52:22;102167.56;;;-2.20;100.00
17593;BME280;8915;51.760;14.300;2023-03-01T08:54:49;102161.53;;;-2.04;100.00
17593;BME280;8915;51.760;14.300;2023-03-01T08:57:17;102169.66;;;-1.95;100.00
17593;BME280;8915;51.760;14.300;2023-03-01T08:59:44;102169.84;;;-1.74;100.00
17593;BME280;8915;51.760;14.300;2023-03-01T09:02:16;102166.25;;;-1.59;100.00
17593;BME280;8915;51.760;14.300;2023-03-01T09:04:44;102167.78;;;-1.45;100.00
17593;BME280;8915;51.760;14.300;2023-03-01T09:07:10;102172.47;;;-1.36;100.00
17593;BME280;8915;51.760;14.300;2023-03-01T09:09:37;102169.81;;;-1.20;100.00
17593;BME280;8915;51.760;14.300;2023-03-01T09:12:04;102173.47;;;-1.15;100.00
17593;BME280;8915;51.760;14.300;2023-03-01T09:14:32;102167.38;;;-0.99;100.00
17593;BME280;8915;51.760;14.300;2023-03-01T09:16:58;102174.56;;;-0.91;100.00
17593;BME280;8915;51.760;14.300;2023-03-01T09:19:28;102177.16;;;-0.90;100.00
17593;BME280;8915;51.760;14.300;2023-03-01T09:21:54;102170.00;;;-0.79;100.00
17593;BME280;8915;51.760;14.300;2023-03-01T09:24:22;102172.19;;;-0.67;100.00
17593;BME280;8915;51.760;14.300;2023-03-01T09:26:53;102169.03;;;-0.62;100.00
17593;BME280;8915;51.760;14.300;2023-03-01T09:29:19;102171.19;;;-0.51;100.00
17593;BME280;8915;51.760;14.300;2023-03-01T09:31:47;102165.72;;;-0.40;100.00
17593;BME280;8915;51.760;14.300;2023-03-01T09:34:14;102174.72;;;-0.30;100.00
17593;BME280;8915;51.760;14.300;2023-03-01T09:36:41;102171.66;;;-0.21;100.00
17593;BME280;8915;51.760;14.300;2023-03-01T09:39:08;102175.56;;;-0.10;100.00
17593;BME280;8915;51.760;14.300;2023-03-01T09:41:45;102179.31;;;-0.02;100.00
17593;BME280;8915;51.760;14.300;2023-03-01T09:44:20;102178.94;;;0.10;100.00
17593;BME280;8915;51.760;14.300;2023-03-01T09:46:51;102176.81;;;0.21;100.00
17593;BME280;8915;51.760;14.300;2023-03-01T09:49:19;102173.66;;;0.27;100.00
17593;BME280;8915;51.760;14.300;2023-03-01T09:51:55;102180.06;;;0.38;100.00
17593;BME280;8915;51.760;14.300;2023-03-01T09:54:22;102182.06;;;0.45;100.00
17593;BME280;8915;51.760;14.300;2023-03-01T09:56:59;102178.94;;;0.52;100.00
17593;BME280;8915;51.760;14.300;2023-03-01T09:59:30;102176.91;;;0.66;100.00
17593;BME280;8915;51.760;14.300;2023-03-01T10:02:05;102180.59;;;0.73;100.00
17593;BME280;8915;51.760;14.300;2023-03-01T10:04:45;102180.16;;;0.83;100.00
17593;BME280;8915;51.760;14.300;2023-03-01T10:07:21;102174.50;;;0.92;100.00
17593;BME280;8915;51.760;14.300;2023-03-01T10:09:52;102172.06;;;0.95;100.00
17593;BME280;8915;51.760;14.300;2023-03-01T10:12:20;102177.34;;;1.00;100.00
17593;BME280;8915;51.760;14.300;2023-03-01T10:14:55;102177.53;;;1.04;100.00
17593;BME280;8915;51.760;14.300;2023-03-01T10:17:30;102162.25;;;1.07;100.00
17593;BME280;8915;51.760;14.300;2023-03-01T10:20:14;102168.19;;;1.06;100.00
17593;BME280;8915;51.760;14.300;2023-03-01T10:22:41;102171.38;;;1.23;100.00
17593;BME280;8915;51.760;14.300;2023-03-01T10:25:13;102172.53;;;1.31;100.00
17593;BME280;8915;51.760;14.300;2023-03-01T10:27:48;102170.63;;;1.50;100.00
17593;BME280;8915;51.760;14.300;2023-03-01T10:30:20;102160.66;;;1.59;100.00
17593;BME280;8915;51.760;14.300;2023-03-01T10:32:51;102160.56;;;1.56;100.00
17593;BME280;8915;51.760;14.300;2023-03-01T10:35:21;102160.94;;;1.67;100.00
17593;BME280;8915;51.760;14.300;2023-03-01T10:37:59;102159.19;;;1.66;100.00
17593;BME280;8915;51.760;14.300;2023-03-01T10:40:28;102155.16;;;1.73;100.00
17593;BME280;8915;51.760;14.300;2023-03-01T10:42:57;102152.44;;;1.94;100.00
17593;BME280;8915;51.760;14.300;2023-03-01T10:45:31;102149.81;;;1.92;100.00
17593;BME280;8915;51.760;14.300;2023-03-01T10:48:12;102147.38;;;1.97;100.00
17593;BME280;8915;51.760;14.300;2023-03-01T10:50:40;102154.69;;;2.10;100.00
17593;BME280;8915;51.760;14.300;2023-03-01T10:53:21;102150.28;;;2.06;100.00
17593;BME280;8915;51.760;14.300;2023-03-01T10:55:56;102149.66;;;2.13;100.00
17593;BME280;8915;51.760;14.300;2023-03-01T10:58:23;102147.13;;;2.15;100.00
17593;BME280;8915;51.760;14.300;2023-03-01T11:00:51;102146.69;;;2.28;100.00
17593;BME280;8915;51.760;14.300;2023-03-01T11:03:22;102156.25;;;2.32;100.00
17593;BME280;8915;51.760;14.300;2023-03-01T11:05:58;102147.56;;;2.28;100.00
17593;BME280;8915;51.760;14.300;2023-03-01T11:08:39;102144.22;;;2.31;97.04
17593;BME280;8915;51.760;14.300;2023-03-01T11:11:25;102138.53;;;2.41;94.68
17593;BME280;8915;51.760;14.300;2023-03-01T11:13:58;102142.84;;;2.42;95.65
17593;BME280;8915;51.760;14.300;2023-03-01T11:16:29;102126.88;;;2.53;94.27
17593;BME280;8915;51.760;14.300;2023-03-01T11:19:13;102124.63;;;2.63;90.59
17593;BME280;8915;51.760;14.300;2023-03-01T11:21:43;102134.09;;;2.64;86.54
17593;BME280;8915;51.760;14.300;2023-03-01T11:24:16;102118.81;;;2.71;89.44
17593;BME280;8915;51.760;14.300;2023-03-01T11:26:47;102136.19;;;2.76;80.46
17593;BME280;8915;51.760;14.300;2023-03-01T11:29:21;102131.31;;;2.86;71.30
17593;BME280;8915;51.760;14.300;2023-03-01T11:31:48;102129.63;;;2.88;70.52
17593;BME280;8915;51.760;14.300;2023-03-01T11:34:20;102133.31;;;2.96;72.08
17593;BME280;8915;51.760;14.300;2023-03-01T11:36:52;102123.03;;;2.96;72.27
17593;BME280;8915;51.760;14.300;2023-03-01T11:39:27;102131.81;;;3.04;72.74
17593;BME280;8915;51.760;14.300;2023-03-01T11:42:02;102122.63;;;3.12;74.47
17593;BME280;8915;51.760;14.300;2023-03-01T11:44:35;102126.00;;;3.10;72.48
17593;BME280;8915;51.760;14.300;2023-03-01T11:47:22;102116.66;;;3.13;74.33
17593;BME280;8915;51.760;14.300;2023-03-01T11:50:16;102118.63;;;3.23;74.78
17593;BME280;8915;51.760;14.300;2023-03-01T11:53:01;102109.59;;;3.38;74.88
17593;BME280;8915;51.760;14.300;2023-03-01T11:55:46;102115.03;;;3.49;72.85
17593;BME280;8915;51.760;14.300;2023-03-01T11:58:29;102120.47;;;3.59;68.08
17593;BME280;8915;51.760;14.300;2023-03-01T12:01:09;102113.31;;;3.49;67.09
17593;BME280;8915;51.760;14.300;2023-03-01T12:04:03;102110.19;;;3.61;67.64
17593;BME280;8915;51.760;14.300;2023-03-01T12:06:50;102109.28;;;3.59;65.94
17593;BME280;8915;51.760;14.300;2023-03-01T12:09:27;102107.91;;;3.72;67.25
17593;BME280;8915;51.760;14.300;2023-03-01T12:12:16;102105.53;;;3.81;67.13
17593;BME280;8915;51.760;14.300;2023-03-01T12:14:55;102107.41;;;3.87;68.21
17593;BME280;8915;51.760;14.300;2023-03-01T12:17:39;102104.69;;;3.81;68.85
17593;BME280;8915;51.760;14.300;2023-03-01T12:20:20;102098.19;;;3.96;68.82
17593;BME280;8915;51.760;14.300;2023-03-01T12:23:11;102095.63;;;3.96;66.72
17593;BME280;8915;51.760;14.300;2023-03-01T12:25:43;102095.66;;;3.98;67.82
17593;BME280;8915;51.760;14.300;2023-03-01T12:28:40;102088.63;;;3.92;68.35
17593;BME280;8915;51.760;14.300;2023-03-01T12:31:30;102098.41;;;4.06;64.95
17593;BME280;8915;51.760;14.300;2023-03-01T12:34:03;102095.81;;;4.06;62.94
17593;BME280;8915;51.760;14.300;2023-03-01T12:36:44;102086.56;;;4.14;64.35
17593;BME280;8915;51.760;14.300;2023-03-01T12:39:38;102083.91;;;4.11;67.27
17593;BME280;8915;51.760;14.300;2023-03-01T12:42:16;102078.13;;;4.21;64.56
17593;BME280;8915;51.760;14.300;2023-03-01T12:45:01;102080.88;;;4.29;62.82
17593;BME280;8915;51.760;14.300;2023-03-01T12:47:50;102087.09;;;4.37;60.64
17593;BME280;8915;51.760;14.300;2023-03-01T12:50:22;102066.38;;;4.34;61.99
17593;BME280;8915;51.760;14.300;2023-03-01T12:52:52;102068.13;;;4.35;61.06
17593;BME280;8915;51.760;14.300;2023-03-01T12:55:27;102055.31;;;4.41;61.21
17593;BME280;8915;51.760;14.300;2023-03-01T12:58:02;102056.22;;;4.43;61.38